Progreso, Texas
Current Conditions -  °F | °C
As of 10:15 AM on Saturday 25 Oct 2014 (Local Time) from KT65 Reporting Station
Clear Clear  
Wind Chill: 74°   Ceiling: Unl
Heat Index: 74°   Visibility: 7mi
Dew Point: 65°   Wind: 0mph
Humidity: 72%   Direction: NA
Pressure: 30.18"   Gusts: NA
Location:  26.09°N, 97.96°W
Report Text: KT65 251515Z AUTO 00000KT 7SM CLR 23/18 A3018 RMK AO2 T02340181
Loading
Personal Weather Stations






























Interactive Weather Map
Tropical Storm Tracking
New forecast layout! Learn more

10-Day Weather Forecast

Advertisements
Track Severe Weather on mobile